Flight Track Log - Related Links

Times and Time Zones

All times are in EDT time to prevent confusion due to time zone crossing. See the N30NY flight status page for this flight to view local times or setup timezone preferences in your user account.

Time Position Orientation Groundspeed Altitude Reporting Facility
EDT Latitude Longitude Course Direction KTS MPH feet Rate Location/Type
Sun 08:58:04 PM 40.9833 -73.2000 287° West 140 161 2,100  Level New York TRACON
Sun 08:58:58 PM 40.9667 -73.2500 246° West 141 162 2,000 -50 Descending New York TRACON
Sun 09:00:04 PM 40.9667 -73.3167 270° West 142 163 2,000  Level New York TRACON
Sun 09:00:58 PM 40.9667 -73.3500 270° West 141 162 2,000  Level New York TRACON
Sun 09:01:58 PM 40.9667 -73.4000 270° West 142 163 2,000  Level New York TRACON
Sun 09:03:00 PM 41.1635 -73.1262 287° West  Level Estimated
Sun 09:03:04 PM 40.9500 -73.4667 252° West 146 168 2,000  Level New York TRACON
Sun 09:03:58 PM 40.9500 -73.5167 270° West 149 171 2,000  Level New York TRACON
Sun 09:04:58 PM 40.9167 -73.5667 229° Southwest 149 171 2,000  Level New York TRACON
Sun 09:05:58 PM 40.9000 -73.6000 237° Southwest 147 169 2,000  Level New York TRACON
Sun 09:06:58 PM 40.8833 -73.6500 246° West 157 181 2,000  Level New York TRACON
Sun 09:07:58 PM 40.8500 -73.7000 229° Southwest 154 177 2,000  Level New York TRACON
Sun 09:08:58 PM 40.8167 -73.7333 217° Southwest 156 180 2,000  Level New York TRACON
Sun 09:09:58 PM 40.8000 -73.7833 246° West 154 177 2,000  Level New York TRACON
Sun 09:10:58 PM 40.7833 -73.8333 246° West 136 157 2,000  Level New York TRACON
Sun 09:11:58 PM 40.7667 -73.8833 246° West 147 169 2,000 -200 Level New York TRACON
Sun 09:12:58 PM 40.7667 -73.9333 270° West 130 150 1,600 -80 Descending New York TRACON
Sun 09:14:00 PM 40.7840 -73.8986 57° Northeast  Level Estimated
Sun 09:21:00 PM 40.9009 -73.6627 57° Northeast  Level Estimated
Sun 09:22:00 PM 40.9175 -73.6289 57° Northeast  Level Estimated
Sun 09:23:00 PM 40.9342 -73.5951 57° Northeast  Level Estimated
Sun 09:24:00 PM 40.9508 -73.5613 57° Northeast  Level Estimated
Sun 09:24:28 PM 40.8167 -74.0167 21° North 107 123 1,000  Level New York TRACON
Sun 09:25:00 PM 40.9675 -73.5275 57° Northeast  Level Estimated
Sun 09:25:28 PM 40.8333 -74.0500 303° West 85 98 700  Level New York TRACON
Sun 09:26:00 PM 40.9841 -73.4937 57° Northeast  Level Estimated
Sun 09:27:00 PM 41.0007 -73.4598 57° Northeast  Level Estimated
Sun 09:27:00 PM 40.8535 -73.9943 64° Northeast  Level Estimated
Sun 09:28:00 PM 41.0173 -73.4259 57° Northeast  Level Estimated
Sun 09:34:00 PM 40.9455 -73.7396 64° Northeast  Level Estimated
Sun 09:35:00 PM 40.9585 -73.7031 65° Northeast  Level Estimated
Sun 09:36:00 PM 40.9716 -73.6667 65° Northeast  Level Estimated
Sun 09:37:00 PM 40.9847 -73.6302 65° Northeast  Level Estimated
Sun 09:38:00 PM 40.9977 -73.5937 65° Northeast  Level Estimated
Sun 09:39:00 PM 41.0108 -73.5572 65° Northeast  Level Estimated
Sun 09:40:00 PM 41.0238 -73.5207 65° Northeast  Level Estimated
Sun 09:41:00 PM 41.0368 -73.4841 65° Northeast  Level Estimated
Sun 09:42:00 PM 41.0498 -73.4476 65° Northeast  Level Estimated
Sun 09:43:00 PM 41.0628 -73.4110 65° Northeast  Level Estimated
Sun 09:44:00 PM 41.0758 -73.3745 65° Northeast  Level Estimated
Sun 09:45:00 PM 41.0888 -73.3379 65° Northeast  Level Estimated
Sun 09:46:00 PM 41.1017 -73.3012 65° Northeast  Level Estimated
Sun 09:47:00 PM 41.1147 -73.2646 65° Northeast  Level Estimated
Sun 09:48:00 PM 41.1276 -73.2280 65° Northeast  Level Estimated
Sun 09:49:00 PM 41.1405 -73.1913 65° Northeast  Level Estimated

Login

Don't have an account? Register now (free) for customized features, flight alerts, and more!